Hovedside
METAR-TAF:

METAR-TAF

Lufthavner :

Bangalore, India

breddegrad: 12-57-00N, lengdegrad: 077-40-06E, høyde over havet: 888 m

Gjeldene værobservasjon

Denne rapporten ble laget for 39 minutter siden, klokken 01:30 UTC
Vind 10 kt fra Vest-sørvest
Temperatur 22°C
Luftfuktighet 94%
Trykk 1012 hPa
Sikt: 6000 m
Spredte skyer i en høyde av 1000 ft
Brutte skyer i en høyde av 8000 ft

METAR: VOBG 200130Z 25010KT 6000 SCT010 BKN080 22/21 Q1012 NOSIG

Tid: 07:39 (02:09 UTC)

Varsel

Denne rapporten ble laget for 3 timer og 9 minutter siden, klokken 23:00 UTC
Varsel gyldig fra 20. klokken 00 UTC til 20. klokken 09 UTC
Vind 10 kt fra Vest
Sikt: 6000 m
Spredte skyer i en høyde av 1200 ft
Spredte skyer i en høyde av 8000 ft
Midlertidig
fra 20. klokken 00 UTC til 20. klokken 03 UTC
Brutte skyer i en høyde av 800 ft
Spredte skyer i en høyde av 1200 ft
Brutte skyer i en høyde av 8000 ft

TAF: VOBG 192300Z 2000/2009 27010KT 6000 SCT012 SCT080 TEMPO 2000/2003 BKN008 SCT012 BKN080

Værobservasjoner og værvarsel for over 4000 flyplasser (METAR- og TAF-rapporter).

Tilgjengelige stasjoner er representert av de røde og gule prikkene på kartet.

Hold musepekeren over prikken for å se navnet på stasjonen.

Klikk så for å se værobservasjoner og -varsler.

For å forandre kartet kan du klikke på den grønne knappen med svart kryss for å zoome inn, på den grønne knappen med strek for å zoome ut, eller på de grønne pilene for å se tilstøtende kart.


METAR-TAF: